West Lexington, Virginia
Current Conditions -  °F | °C
As of 6:15 AM on Monday 22 Dec 2014 (Local Time) from KHSP Reporting Station
Overcast Overcast  
Wind Chill: 24°   Ceiling: 500
Heat Index: 29°   Visibility: 10mi
Dew Point: 29°   Wind: 5mph
Humidity: 100%   Direction: 150°SSE
Pressure: 30.05"   Gusts: NA
Location:  37.7866°N, 79.5193°W
Report Text: KHSP 221115Z AUTO 15004KT 10SM OVC005 M02/M02 A3005 RMK AO2 T10181018
Loading
Personal Weather Stations






























Interactive Weather Map New forecast layout! Learn more

10-Day Weather Forecast

Advertisements
Track Severe Weather on mobile